Time;durP1;ratioP1;P1;durP2;ratioP2;P2;SDS_P1;SDS_P2;PMS_P1;PMS_P2;Temp;Humidity;BMP_temperature;BMP_pressure;BME280_temperature;BME280_humidity;BME280_pressure;Samples;Min_cycle;Max_cycle;Signal;HPM_P1;HPM_P2
2021/10/25 00:01:55;;;;;;;1.10;0.52;;;7.00;99.90;;;;;;5057671;28;20025;-69
2021/10/25 00:04:20;;;;;;;0.50;0.50;;;7.00;99.90;;;;;;5060548;28;20028;-70
2021/10/25 00:06:46;;;;;;;0.20;0.20;;;7.00;99.90;;;;;;5057363;28;20487;-69
2021/10/25 00:09:11;;;;;;;0.85;0.82;;;7.00;99.90;;;;;;5055254;28;20077;-69
2021/10/25 00:11:37;;;;;;;1.60;1.15;;;7.00;99.90;;;;;;5035667;28;20078;-69
2021/10/25 00:14:02;;;;;;;5.25;1.45;;;6.90;99.90;;;;;;5057171;28;20055;-70
2021/10/25 00:16:28;;;;;;;0.55;0.47;;;6.90;99.90;;;;;;5059744;28;20101;-70
2021/10/25 00:18:53;;;;;;;0.28;0.25;;;6.80;99.90;;;;;;5055109;28;20029;-69
2021/10/25 00:21:19;;;;;;;0.68;0.52;;;6.80;99.90;;;;;;5065884;28;20543;-69
2021/10/25 00:23:45;;;;;;;0.10;0.10;;;6.70;99.90;;;;;;5050155;28;20040;-70
2021/10/25 00:26:11;;;;;;;0.10;0.10;;;6.70;99.90;;;;;;5057356;28;20667;-69
2021/10/25 00:28:37;;;;;;;0.38;0.38;;;6.60;99.90;;;;;;5060823;28;20070;-69
2021/10/25 00:31:02;;;;;;;0.00;0.00;;;6.60;99.90;;;;;;5058311;28;20052;-69
2021/10/25 00:33:28;;;;;;;0.17;0.17;;;6.60;99.90;;;;;;5059983;28;20047;-69
2021/10/25 00:35:54;;;;;;;0.30;0.30;;;6.60;99.90;;;;;;5066841;28;20051;-70
2021/10/25 00:38:20;;;;;;;0.00;0.00;;;6.60;99.90;;;;;;5052476;28;20061;-70
2021/10/25 00:40:46;;;;;;;0.20;0.20;;;6.60;99.90;;;;;;5056351;28;20558;-70
2021/10/25 00:43:11;;;;;;;0.00;0.00;;;6.50;99.90;;;;;;5058607;28;20069;-69
2021/10/25 00:45:37;;;;;;;0.15;0.15;;;6.50;99.90;;;;;;5063737;28;20100;-70
2021/10/25 00:48:03;;;;;;;1.38;0.98;;;6.50;99.90;;;;;;5061119;28;20048;-69
2021/10/25 00:50:29;;;;;;;0.38;0.38;;;6.50;99.90;;;;;;5053159;28;20025;-70
2021/10/25 00:52:54;;;;;;;0.80;0.80;;;6.40;99.90;;;;;;5057590;28;20472;-69
2021/10/25 00:55:21;;;;;;;0.45;0.45;;;6.40;99.90;;;;;;5058682;28;20028;-69
2021/10/25 00:57:46;;;;;;;0.43;0.43;;;6.40;99.90;;;;;;5055243;28;20043;-70
2021/10/25 01:00:12;;;;;;;0.00;0.00;;;6.30;99.90;;;;;;5054401;28;20399;-70
2021/10/25 01:02:39;;;;;;;1.13;1.02;;;6.30;99.90;;;;;;5067381;28;20438;-69
2021/10/25 01:05:06;;;;;;;0.28;0.28;;;6.30;99.90;;;;;;5059376;28;20479;-70
2021/10/25 01:07:31;;;;;;;0.47;0.47;;;6.30;99.90;;;;;;5067627;28;20028;-69
2021/10/25 01:09:57;;;;;;;0.22;0.22;;;6.30;99.90;;;;;;5058152;28;20035;-69
2021/10/25 01:12:23;;;;;;;0.73;0.30;;;6.30;99.90;;;;;;5055879;28;20048;-70
2021/10/25 01:14:49;;;;;;;0.30;0.30;;;6.40;99.90;;;;;;5067314;28;20029;-69
2021/10/25 01:17:15;;;;;;;0.50;0.47;;;6.30;99.90;;;;;;5060074;28;20098;-70
2021/10/25 01:19:41;;;;;;;0.00;0.00;;;6.30;99.90;;;;;;5056970;28;20528;-69
2021/10/25 01:22:06;;;;;;;0.25;0.25;;;6.30;99.90;;;;;;5069027;28;20024;-70
2021/10/25 01:24:32;;;;;;;0.45;0.45;;;6.30;99.90;;;;;;5054713;28;20037;-69
2021/10/25 01:26:57;;;;;;;0.10;0.10;;;6.30;99.90;;;;;;5063666;28;20048;-70
2021/10/25 01:29:23;;;;;;;0.30;0.08;;;6.30;99.90;;;;;;5061151;28;20079;-70
2021/10/25 01:31:49;;;;;;;0.90;0.82;;;6.30;99.90;;;;;;5060119;28;20360;-69
2021/10/25 01:34:15;;;;;;;6.93;1.40;;;6.30;99.90;;;;;;5061271;28;20028;-69
2021/10/25 01:36:41;;;;;;;1.38;0.70;;;6.30;99.90;;;;;;5064410;28;20415;-69
2021/10/25 01:39:08;;;;;;;0.47;0.47;;;6.30;99.90;;;;;;5056082;28;20032;-70
2021/10/25 01:41:33;;;;;;;0.55;0.55;;;6.30;99.90;;;;;;5060387;28;20106;-69
2021/10/25 01:43:59;;;;;;;2.55;1.27;;;6.30;99.90;;;;;;5059973;28;20439;-69
2021/10/25 01:46:25;;;;;;;1.45;1.35;;;6.20;99.90;;;;;;5058893;28;20048;-69
2021/10/25 01:48:50;;;;;;;0.85;0.85;;;6.20;99.90;;;;;;5063582;28;20024;-69
2021/10/25 01:51:16;;;;;;;0.35;0.35;;;6.10;99.90;;;;;;5066480;28;20097;-69
2021/10/25 01:53:43;;;;;;;6.15;0.75;;;6.10;99.90;;;;;;5058816;28;20055;-69
2021/10/25 01:56:09;;;;;;;1.85;1.05;;;6.00;99.90;;;;;;5064415;28;20539;-69
2021/10/25 01:58:35;;;;;;;1.10;0.68;;;6.00;99.90;;;;;;5058908;28;20032;-69
2021/10/25 02:01:01;;;;;;;0.30;0.30;;;6.00;99.90;;;;;;5056214;28;20036;-69
2021/10/25 02:03:27;;;;;;;0.38;0.38;;;5.90;99.90;;;;;;5063518;28;20028;-70
2021/10/25 02:05:53;;;;;;;0.43;0.43;;;5.80;99.90;;;;;;5059292;28;20032;-69
2021/10/25 02:08:21;;;;;;;0.10;0.10;;;5.80;99.90;;;;;;5061699;28;20032;-69
2021/10/25 02:10:46;;;;;;;0.08;0.08;;;5.70;99.90;;;;;;5057880;28;20037;-69
2021/10/25 02:13:15;;;;;;;0.65;0.65;;;5.70;99.90;;;;;;5060006;28;20037;-69
2021/10/25 02:15:42;;;;;;;1.85;1.15;;;5.70;99.90;;;;;;5065033;28;20028;-68
2021/10/25 02:18:08;;;;;;;0.35;0.35;;;5.70;99.90;;;;;;5066685;28;20034;-69
2021/10/25 02:20:33;;;;;;;0.50;0.50;;;5.70;99.90;;;;;;5058408;28;20041;-69
2021/10/25 02:22:58;;;;;;;0.00;0.00;;;5.70;99.90;;;;;;5059107;28;20036;-69
2021/10/25 02:25:24;;;;;;;0.35;0.35;;;5.70;99.90;;;;;;5061327;28;20045;-69
2021/10/25 02:27:50;;;;;;;0.47;0.45;;;5.60;99.90;;;;;;5056210;28;20380;-69
2021/10/25 02:30:16;;;;;;;2.50;1.33;;;5.50;99.90;;;;;;5059440;28;20458;-69
2021/10/25 02:32:42;;;;;;;0.00;0.00;;;5.50;99.90;;;;;;5055338;28;20383;-70
2021/10/25 02:35:08;;;;;;;1.08;0.57;;;5.50;99.90;;;;;;5061987;28;20032;-70
2021/10/25 02:37:33;;;;;;;0.30;0.30;;;5.40;99.90;;;;;;5058832;28;20029;-69
2021/10/25 02:39:59;;;;;;;0.65;0.52;;;5.40;99.90;;;;;;5060248;28;20502;-69
2021/10/25 02:42:24;;;;;;;0.45;0.45;;;5.30;99.90;;;;;;5068238;28;20032;-70
2021/10/25 02:44:50;;;;;;;0.00;0.00;;;5.30;99.90;;;;;;5062293;28;20104;-69
2021/10/25 02:47:17;;;;;;;1.00;0.57;;;5.30;99.90;;;;;;5064881;28;20032;-69
2021/10/25 02:49:43;;;;;;;0.30;0.30;;;5.20;99.90;;;;;;5058816;28;20476;-70
2021/10/25 02:52:09;;;;;;;0.10;0.10;;;5.20;99.90;;;;;;5055744;28;20135;-70
2021/10/25 02:54:34;;;;;;;0.10;0.10;;;5.20;99.90;;;;;;5056354;28;20025;-69
2021/10/25 02:57:00;;;;;;;0.95;0.57;;;5.10;99.90;;;;;;5059447;28;20036;-69
2021/10/25 02:59:25;;;;;;;0.10;0.10;;;5.20;99.90;;;;;;5058844;28;20023;-69
2021/10/25 03:01:51;;;;;;;0.17;0.17;;;5.10;99.90;;;;;;5061928;28;20063;-69
2021/10/25 03:04:17;;;;;;;0.10;0.10;;;5.00;99.90;;;;;;5060621;28;20039;-69
2021/10/25 03:06:42;;;;;;;0.28;0.28;;;5.10;99.90;;;;;;5058524;28;20024;-70
2021/10/25 03:09:09;;;;;;;2.17;0.85;;;5.00;99.90;;;;;;5065579;28;20475;-70
2021/10/25 03:11:34;;;;;;;0.00;0.00;;;5.00;99.90;;;;;;5057939;28;20557;-70
2021/10/25 03:14:00;;;;;;;0.85;0.50;;;5.00;99.90;;;;;;5057090;28;20026;-69
2021/10/25 03:16:27;;;;;;;0.60;0.60;;;5.00;99.90;;;;;;5063666;28;20036;-69
2021/10/25 03:18:52;;;;;;;0.10;0.10;;;5.10;99.90;;;;;;5056630;28;20032;-70
2021/10/25 03:21:19;;;;;;;0.17;0.17;;;5.10;99.90;;;;;;5065892;28;20055;-69
2021/10/25 03:23:45;;;;;;;0.55;0.55;;;5.10;99.90;;;;;;5056895;28;20114;-69
2021/10/25 03:26:12;;;;;;;0.40;0.40;;;5.00;99.90;;;;;;5055328;28;20029;-69
2021/10/25 03:28:38;;;;;;;0.10;0.10;;;5.00;99.90;;;;;;5061748;28;20159;-69
2021/10/25 03:31:05;;;;;;;0.70;0.63;;;5.00;99.90;;;;;;5060203;28;20048;-70
2021/10/25 03:33:33;;;;;;;1.00;1.00;;;4.90;99.90;;;;;;5053200;28;20043;-68
2021/10/25 03:36:00;;;;;;;0.00;0.00;;;4.90;99.90;;;;;;5056171;28;20039;-69
2021/10/25 03:38:25;;;;;;;0.22;0.22;;;4.90;99.90;;;;;;5058516;28;20032;-69
2021/10/25 03:40:53;;;;;;;0.22;0.22;;;4.90;99.90;;;;;;5055999;28;20017;-69
2021/10/25 03:43:20;;;;;;;0.20;0.15;;;4.90;99.90;;;;;;5064801;28;20025;-69
2021/10/25 03:45:52;;;;;;;0.20;0.20;;;4.80;99.90;;;;;;5061166;28;20043;-69
2021/10/25 03:48:39;;;;;;;0.15;0.15;;;4.80;99.90;;;;;;5056478;28;20028;-69
2021/10/25 03:51:07;;;;;;;0.35;0.35;;;4.70;99.90;;;;;;5050325;28;20716;-70
2021/10/25 03:53:41;;;;;;;0.65;0.43;;;4.60;99.90;;;;;;5057867;28;20535;-70
2021/10/25 03:56:14;;;;;;;0.15;0.15;;;4.60;99.90;;;;;;5061122;28;20198;-69
2021/10/25 03:59:10;;;;;;;0.20;0.20;;;4.60;99.90;;;;;;5056886;28;20557;-69
2021/10/25 04:04:35;;;;;;;;;;;4.50;99.90;;;;;;5075443;28;20491;-69
2021/10/25 04:12:58;;;;;;;0.98;0.90;;;4.50;99.90;;;;;;5075461;28;19907;-70
2021/10/25 04:29:23;;;;;;;0.45;0.45;;;4.50;99.90;;;;;;4997201;28;20022;-70
2021/10/25 04:31:49;;;;;;;0.13;0.13;;;4.50;99.90;;;;;;5069436;28;20036;-71
2021/10/25 04:34:14;;;;;;;0.10;0.10;;;4.60;99.90;;;;;;5080104;28;20028;-69
2021/10/25 04:36:40;;;;;;;0.43;0.43;;;4.60;99.90;;;;;;5086306;28;20124;-69
2021/10/25 04:39:09;;;;;;;0.40;0.40;;;4.70;99.90;;;;;;5077943;28;20028;-70
2021/10/25 04:41:36;;;;;;;0.32;0.32;;;4.70;99.90;;;;;;5075910;28;20490;-73
2021/10/25 04:44:01;;;;;;;0.75;0.73;;;4.60;99.90;;;;;;5084613;28;20028;-69
2021/10/25 04:46:26;;;;;;;1.85;0.68;;;4.60;99.90;;;;;;5083030;28;20187;-69
2021/10/25 04:48:52;;;;;;;0.70;0.65;;;4.60;99.90;;;;;;5078468;28;20216;-69
2021/10/25 04:51:17;;;;;;;3.65;2.22;;;4.60;99.90;;;;;;5082765;28;20536;-70
2021/10/25 04:53:43;;;;;;;0.13;0.13;;;4.60;99.90;;;;;;5080014;28;20024;-70
2021/10/25 04:56:08;;;;;;;38.83;1.15;;;4.60;99.90;;;;;;5082905;28;20051;-69
2021/10/25 04:58:34;;;;;;;0.40;0.40;;;4.60;99.90;;;;;;5077090;28;20089;-69
2021/10/25 05:00:59;;;;;;;0.20;0.20;;;4.60;99.90;;;;;;5084751;28;20086;-70
2021/10/25 05:03:25;;;;;;;0.20;0.20;;;4.60;99.90;;;;;;5083203;28;20029;-71
2021/10/25 05:05:51;;;;;;;0.30;0.30;;;4.60;99.90;;;;;;5078730;28;20016;-69
2021/10/25 05:08:17;;;;;;;0.17;0.17;;;4.50;99.90;;;;;;5088595;28;20016;-70
2021/10/25 05:10:42;;;;;;;0.70;0.70;;;4.60;99.90;;;;;;5078659;28;20066;-69
2021/10/25 05:13:08;;;;;;;2.63;0.80;;;4.60;99.90;;;;;;5084475;28;20090;-70
2021/10/25 05:15:33;;;;;;;1.23;1.13;;;4.60;99.90;;;;;;5087414;28;20059;-70
2021/10/25 05:17:59;;;;;;;0.75;0.57;;;4.50;99.90;;;;;;5088038;28;20028;-70
2021/10/25 05:20:24;;;;;;;4.90;0.95;;;4.60;99.90;;;;;;5077840;28;20020;-69
2021/10/25 05:22:50;;;;;;;0.00;0.00;;;4.60;99.90;;;;;;5075690;28;20715;-69
2021/10/25 05:25:15;;;;;;;0.70;0.30;;;4.60;99.90;;;;;;5084660;28;20047;-70
2021/10/25 05:27:41;;;;;;;0.40;0.40;;;4.70;99.90;;;;;;5073846;28;20748;-69
2021/10/25 05:30:07;;;;;;;0.20;0.20;;;4.70;99.90;;;;;;5083991;28;20032;-70
2021/10/25 05:32:33;;;;;;;3.95;0.95;;;4.70;99.90;;;;;;5086286;28;20031;-70
2021/10/25 05:34:58;;;;;;;2.70;1.33;;;4.70;99.90;;;;;;5082167;28;20599;-69
2021/10/25 05:37:24;;;;;;;0.30;0.30;;;4.70;99.90;;;;;;5077340;28;20020;-68
2021/10/25 05:39:50;;;;;;;0.90;0.90;;;4.70;99.90;;;;;;5084876;28;20036;-71
2021/10/25 05:42:16;;;;;;;9.95;0.57;;;4.80;99.90;;;;;;5071038;28;20520;-72
2021/10/25 05:44:41;;;;;;;0.28;0.28;;;4.80;99.90;;;;;;5073925;28;20024;-70
2021/10/25 05:47:07;;;;;;;0.47;0.47;;;4.80;99.90;;;;;;5084517;28;20031;-70
2021/10/25 05:49:32;;;;;;;0.20;0.20;;;4.80;99.90;;;;;;5090354;28;20031;-68
2021/10/25 05:51:58;;;;;;;0.40;0.40;;;4.80;99.90;;;;;;5090902;28;20028;-69
2021/10/25 05:54:26;;;;;;;0.57;0.57;;;4.80;99.90;;;;;;5090256;28;20043;-69
2021/10/25 05:56:51;;;;;;;0.30;0.30;;;4.90;99.90;;;;;;5090515;28;20051;-71
2021/10/25 05:59:22;;;;;;;0.70;0.55;;;4.90;99.90;;;;;;5086670;28;20639;-70
2021/10/25 06:01:56;;;;;;;0.10;0.10;;;4.90;99.90;;;;;;5074793;28;20041;-74
2021/10/25 06:04:24;;;;;;;0.13;0.13;;;4.90;99.90;;;;;;5079136;28;20642;-72
2021/10/25 06:06:50;;;;;;;0.55;0.55;;;5.00;99.90;;;;;;5090828;28;20024;-72
2021/10/25 06:09:15;;;;;;;0.03;0.03;;;5.00;99.90;;;;;;5084382;28;20688;-72
2021/10/25 06:11:42;;;;;;;0.40;0.40;;;5.10;99.90;;;;;;5085535;28;20055;-72
2021/10/25 06:14:09;;;;;;;0.25;0.25;;;5.10;99.90;;;;;;5088642;28;20032;-72
2021/10/25 06:16:39;;;;;;;2.85;0.98;;;5.10;99.90;;;;;;5087357;28;20027;-72
2021/10/25 06:19:06;;;;;;;0.57;0.57;;;5.20;99.90;;;;;;5088191;28;20039;-73
2021/10/25 06:21:33;;;;;;;0.90;0.90;;;5.30;99.90;;;;;;5084373;28;20028;-72
2021/10/25 06:23:59;;;;;;;0.32;0.32;;;5.30;99.90;;;;;;5087209;28;20118;-72
2021/10/25 06:26:26;;;;;;;1.35;0.82;;;5.40;99.90;;;;;;5086415;28;20043;-72
2021/10/25 06:28:52;;;;;;;23.95;1.98;;;5.50;99.90;;;;;;5087903;28;20101;-73
2021/10/25 06:31:19;;;;;;;0.10;0.10;;;5.50;99.90;;;;;;5087461;28;20751;-72
2021/10/25 06:33:46;;;;;;;0.45;0.45;;;5.60;99.90;;;;;;5087755;28;20028;-73
2021/10/25 06:36:12;;;;;;;2.20;0.73;;;5.60;99.90;;;;;;5087530;28;20024;-73
2021/10/25 06:38:43;;;;;;;0.40;0.40;;;5.70;99.90;;;;;;5085978;28;20039;-72
2021/10/25 06:41:09;;;;;;;5.10;1.25;;;5.70;99.90;;;;;;5087393;28;20489;-73
2021/10/25 06:43:35;;;;;;;0.20;0.20;;;5.80;99.90;;;;;;5086195;28;20111;-72
2021/10/25 06:46:02;;;;;;;0.52;0.52;;;5.80;99.90;;;;;;5086425;28;20032;-72
2021/10/25 06:48:29;;;;;;;0.30;0.30;;;5.90;99.90;;;;;;5085391;28;20024;-72
2021/10/25 06:50:56;;;;;;;0.10;0.10;;;5.90;99.90;;;;;;5084875;28;20031;-72
2021/10/25 06:53:22;;;;;;;0.52;0.52;;;6.00;99.90;;;;;;5086120;28;20138;-72
2021/10/25 06:55:48;;;;;;;0.10;0.10;;;6.00;99.90;;;;;;5085664;28;20529;-73
2021/10/25 06:58:13;;;;;;;0.28;0.28;;;6.10;99.90;;;;;;5086545;28;20078;-72
2021/10/25 07:00:39;;;;;;;0.75;0.75;;;6.10;99.90;;;;;;5086434;28;20111;-72
2021/10/25 07:03:05;;;;;;;0.50;0.50;;;6.10;99.90;;;;;;5085173;28;20028;-72
2021/10/25 07:06:15;;;;;;;0.17;0.17;;;6.20;99.90;;;;;;5075609;28;20030;-71
2021/10/25 07:08:42;;;;;;;0.10;0.10;;;6.20;99.90;;;;;;4998410;28;20033;-70
2021/10/25 07:11:09;;;;;;;0.20;0.20;;;6.20;99.90;;;;;;4994719;28;20105;-69
2021/10/25 07:13:36;;;;;;;1.15;0.77;;;6.30;99.90;;;;;;5045425;28;20097;-70
2021/10/25 07:16:06;;;;;;;0.32;0.32;;;6.30;99.90;;;;;;5086268;28;20095;-70
2021/10/25 07:18:41;;;;;;;0.35;0.35;;;6.40;99.90;;;;;;5087867;28;20085;-69
2021/10/25 07:26:14;;;;;;;0.15;0.15;;;6.50;99.90;;;;;;5088065;28;20034;-70
2021/10/25 07:27:12;;;;;;;0.77;0.77;;;6.50;99.90;;;;;;5087703;28;20056;-69
2021/10/25 08:03:03;;;;;;;0.10;0.10;;;7.40;98.30;;;;;;5082058;28;20108;-70
2021/10/25 08:08:23;;;;;;;0.30;0.30;;;7.50;97.50;;;;;;5087743;28;20021;-69
2021/10/25 08:10:58;;;;;;;0.57;0.57;;;7.60;97.70;;;;;;5087171;28;20479;-70
2021/10/25 08:13:30;;;;;;;0.40;0.40;;;7.70;97.30;;;;;;5087422;28;20047;-69
2021/10/25 08:15:57;;;;;;;1.33;0.60;;;7.80;96.80;;;;;;5087585;28;20504;-70
2021/10/25 08:18:35;;;;;;;1.20;1.10;;;7.90;96.50;;;;;;5086748;28;20031;-70
2021/10/25 08:21:01;;;;;;;0.35;0.35;;;7.90;96.40;;;;;;5077316;28;20020;-69
2021/10/25 08:23:26;;;;;;;1.65;0.60;;;8.00;96.50;;;;;;5087113;28;20383;-69
2021/10/25 08:25:52;;;;;;;1.00;0.93;;;8.00;96.10;;;;;;5087690;28;20048;-69
2021/10/25 08:28:18;;;;;;;0.20;0.20;;;8.00;96.20;;;;;;5087621;28;20526;-69
2021/10/25 08:30:44;;;;;;;0.00;0.00;;;8.00;96.20;;;;;;5087187;28;20093;-70
2021/10/25 08:36:16;;;;;;;0.15;0.15;;;8.10;95.90;;;;;;5082887;28;20094;-69
2021/10/25 08:41:31;;;;;;;0.10;0.10;;;8.30;95.50;;;;;;5086923;28;20123;-69
2021/10/25 08:43:58;;;;;;;0.45;0.45;;;8.40;95.30;;;;;;5087031;28;20028;-69
2021/10/25 08:46:27;;;;;;;0.35;0.35;;;8.40;95.20;;;;;;5087503;28;20020;-69
2021/10/25 08:48:53;;;;;;;2.00;0.73;;;8.50;95.50;;;;;;5087204;28;20440;-69
2021/10/25 08:51:20;;;;;;;0.68;0.63;;;8.50;95.00;;;;;;5086876;28;20150;-70
2021/10/25 08:53:46;;;;;;;0.73;0.30;;;8.60;94.80;;;;;;5075214;28;20032;-69
2021/10/25 08:56:17;;;;;;;1.80;1.13;;;8.70;94.60;;;;;;5086480;28;20530;-70
2021/10/25 08:58:45;;;;;;;0.73;0.73;;;8.70;94.50;;;;;;5087160;28;20598;-69
2021/10/25 09:01:11;;;;;;;0.57;0.57;;;8.90;94.30;;;;;;5086840;28;20051;-70
2021/10/25 09:03:36;;;;;;;2.30;1.38;;;9.00;94.50;;;;;;5086905;28;20479;-70
2021/10/25 09:06:02;;;;;;;23.15;0.88;;;9.10;94.40;;;;;;5087363;28;20023;-69
2021/10/25 09:08:29;;;;;;;0.10;0.10;;;9.30;93.70;;;;;;5086774;28;20088;-71
2021/10/25 09:10:55;;;;;;;1.58;1.40;;;9.30;93.10;;;;;;5085631;28;20727;-69
2021/10/25 09:13:26;;;;;;;0.65;0.38;;;9.40;92.80;;;;;;5087191;28;20032;-70
2021/10/25 09:15:54;;;;;;;0.50;0.50;;;9.40;92.60;;;;;;5087102;28;20124;-70
2021/10/25 09:18:22;;;;;;;0.30;0.30;;;9.40;92.40;;;;;;5090586;28;20479;-68
2021/10/25 09:21:05;;;;;;;0.68;0.68;;;9.50;92.30;;;;;;5090403;28;20024;-70
2021/10/25 09:23:33;;;;;;;0.30;0.30;;;9.60;92.20;;;;;;5090509;28;20540;-69
2021/10/25 09:26:02;;;;;;;2.08;0.88;;;9.60;92.20;;;;;;5090647;28;20056;-69
2021/10/25 09:28:34;;;;;;;0.20;0.20;;;9.70;91.80;;;;;;5076600;28;20035;-70
2021/10/25 09:31:03;;;;;;;0.30;0.30;;;9.80;91.60;;;;;;5090556;28;20032;-69
2021/10/25 09:33:37;;;;;;;3.45;0.70;;;9.80;91.60;;;;;;5090015;28;20044;-69
2021/10/25 09:36:08;;;;;;;0.47;0.47;;;9.90;91.70;;;;;;5090477;28;20027;-70
2021/10/25 09:49:17;;;;;;;1.52;1.35;;;10.50;91.00;;;;;;5089951;28;20031;-69
2021/10/25 09:51:57;;;;;;;1.42;0.95;;;10.60;90.70;;;;;;5089722;28;20125;-68
2021/10/25 09:54:24;;;;;;;0.22;0.22;;;10.70;90.40;;;;;;5089648;28;20421;-69
2021/10/25 09:57:10;;;;;;;1.50;0.65;;;10.70;89.70;;;;;;5089625;28;20048;-70
2021/10/25 09:59:52;;;;;;;5.78;0.90;;;10.70;89.90;;;;;;5076772;28;20036;-67
2021/10/25 10:02:21;;;;;;;1.02;0.93;;;10.80;89.30;;;;;;5088936;28;20440;-69
2021/10/25 10:04:48;;;;;;;2.80;1.25;;;10.80;88.90;;;;;;5089515;28;20028;-69
2021/10/25 10:07:16;;;;;;;0.98;0.90;;;10.80;90.00;;;;;;5089723;28;20152;-68
2021/10/25 10:09:44;;;;;;;0.38;0.38;;;10.90;89.60;;;;;;5090058;28;20035;-69
2021/10/25 10:12:20;;;;;;;0.20;0.20;;;11.00;89.90;;;;;;5089927;28;20016;-69
2021/10/25 10:14:51;;;;;;;0.40;0.35;;;11.10;88.90;;;;;;5089958;28;20477;-69
2021/10/25 10:17:23;;;;;;;1.27;0.40;;;11.30;88.90;;;;;;5088635;28;20028;-68
2021/10/25 10:19:51;;;;;;;0.20;0.20;;;11.40;87.40;;;;;;5089520;28;20529;-69
2021/10/25 10:22:20;;;;;;;0.10;0.10;;;11.50;87.60;;;;;;5089677;28;20026;-70
2021/10/25 10:24:50;;;;;;;0.17;0.17;;;11.60;87.10;;;;;;5088848;28;20123;-69
2021/10/25 10:27:23;;;;;;;1.75;1.27;;;11.70;87.60;;;;;;5088118;28;20536;-69
2021/10/25 10:29:57;;;;;;;0.38;0.22;;;11.90;85.90;;;;;;5085490;28;20052;-68
2021/10/25 10:32:26;;;;;;;0.45;0.45;;;12.00;85.20;;;;;;5084837;28;20591;-70
2021/10/25 10:34:53;;;;;;;0.10;0.10;;;12.10;84.40;;;;;;5082781;28;20036;-70
2021/10/25 10:37:25;;;;;;;0.82;0.63;;;12.20;83.00;;;;;;5084333;28;20028;-68
2021/10/25 10:40:05;;;;;;;4.50;0.75;;;12.30;81.80;;;;;;5081799;28;20293;-68
2021/10/25 10:42:31;;;;;;;2.30;0.68;;;12.20;82.10;;;;;;5092571;28;20494;-67
2021/10/25 10:45:00;;;;;;;0.15;0.15;;;12.20;82.50;;;;;;5086330;28;20044;-69
2021/10/25 10:47:27;;;;;;;1.88;1.40;;;12.30;82.50;;;;;;5089174;28;20415;-69
2021/10/25 10:49:57;;;;;;;1.55;1.05;;;12.30;82.50;;;;;;5088926;28;20028;-69
2021/10/25 10:52:30;;;;;;;0.10;0.10;;;12.50;81.20;;;;;;5087460;28;20024;-69
2021/10/25 10:55:06;;;;;;;0.20;0.20;;;12.60;81.80;;;;;;5088798;28;20031;-68
2021/10/25 11:00:39;;;;;;;0.55;0.30;;;13.10;79.00;;;;;;5090284;28;20042;-69
2021/10/25 11:03:07;;;;;;;1.63;0.73;;;13.20;77.60;;;;;;5080916;28;20031;-69
2021/10/25 11:05:55;;;;;;;0.13;0.13;;;13.40;78.60;;;;;;5087619;28;20023;-68
2021/10/25 11:08:24;;;;;;;15.32;1.48;;;13.50;76.10;;;;;;5079093;28;20103;-69
2021/10/25 11:11:20;;;;;;;0.15;0.15;;;13.60;75.70;;;;;;5087448;28;20043;-70
2021/10/25 11:13:56;;;;;;;0.45;0.45;;;13.60;76.00;;;;;;5055189;28;20043;-68
2021/10/25 11:16:33;;;;;;;0.20;0.20;;;13.60;76.20;;;;;;5086016;28;20471;-69
2021/10/25 11:19:00;;;;;;;2.13;0.98;;;13.60;76.30;;;;;;5084947;28;20113;-69
2021/10/25 11:21:33;;;;;;;0.65;0.38;;;13.50;76.10;;;;;;5079300;28;20024;-69
2021/10/25 11:24:13;;;;;;;11.18;1.75;;;13.40;76.70;;;;;;5075470;28;20427;-69
2021/10/25 11:27:03;;;;;;;0.47;0.47;;;13.40;76.60;;;;;;5075122;28;20135;-69
2021/10/25 11:29:31;;;;;;;1.03;0.40;;;13.40;77.10;;;;;;5081457;28;20391;-70
2021/10/25 11:32:03;;;;;;;0.57;0.57;;;13.40;77.10;;;;;;5074472;28;20039;-69
2021/10/25 11:34:32;;;;;;;1.83;0.50;;;13.30;77.10;;;;;;5079436;28;20028;-69
2021/10/25 11:37:02;;;;;;;0.38;0.38;;;13.20;76.90;;;;;;5080055;28;20028;-70
2021/10/25 11:39:47;;;;;;;0.17;0.17;;;13.20;78.00;;;;;;5085467;28;20453;-69
2021/10/25 11:42:15;;;;;;;4.43;1.23;;;13.20;78.00;;;;;;5086500;28;20545;-69
2021/10/25 11:44:46;;;;;;;0.10;0.10;;;13.50;77.60;;;;;;5086626;28;20039;-70
2021/10/25 11:47:24;;;;;;;1.65;0.52;;;13.70;75.80;;;;;;5088291;28;20016;-70
2021/10/25 11:49:52;;;;;;;0.82;0.82;;;13.70;75.80;;;;;;5081727;28;20656;-69
2021/10/25 11:52:18;;;;;;;1.35;0.88;;;13.70;75.30;;;;;;5081103;28;20372;-70
2021/10/25 11:54:49;;;;;;;0.85;0.45;;;13.70;76.10;;;;;;5078092;28;20039;-69
2021/10/25 11:57:16;;;;;;;;;;;13.70;75.60;;;;;;5084157;28;20032;-69
2021/10/25 11:59:42;;;;;;;0.65;0.55;;;13.60;76.50;;;;;;5084520;28;20011;-69
2021/10/25 12:02:09;;;;;;;0.43;0.43;;;13.50;76.30;;;;;;5081848;28;20115;-69
2021/10/25 12:04:44;;;;;;;1.35;0.50;;;13.40;75.80;;;;;;5078254;28;20047;-69
2021/10/25 12:07:10;;;;;;;0.47;0.47;;;13.40;77.00;;;;;;5078691;28;20032;-69
2021/10/25 12:09:36;;;;;;;0.40;0.40;;;13.40;76.90;;;;;;5076286;28;20093;-69
2021/10/25 12:12:25;;;;;;;0.50;0.50;;;13.50;76.60;;;;;;5079752;28;20419;-69
2021/10/25 12:14:56;;;;;;;1.20;1.10;;;13.60;76.30;;;;;;5079524;28;20063;-69
2021/10/25 12:17:27;;;;;;;0.30;0.30;;;13.70;76.20;;;;;;5074581;28;20039;-70
2021/10/25 12:19:53;;;;;;;;;;;13.80;76.10;;;;;;5077633;28;20036;-69
2021/10/25 12:22:21;;;;;;;1.65;0.82;;;13.90;75.40;;;;;;5081253;28;19927;-69
2021/10/25 12:24:50;;;;;;;0.22;0.22;;;13.80;76.00;;;;;;5081804;28;20044;-69
2021/10/25 12:27:23;;;;;;;2.10;0.88;;;13.70;75.10;;;;;;5081553;28;20051;-70
2021/10/25 12:30:05;;;;;;;1.65;0.63;;;13.60;76.10;;;;;;5087513;28;20130;-70
2021/10/25 12:32:31;;;;;;;0.30;0.30;;;13.60;76.00;;;;;;5080675;28;20012;-69
2021/10/25 12:34:58;;;;;;;0.50;0.50;;;13.50;76.20;;;;;;5077557;28;20021;-70
2021/10/25 12:37:26;;;;;;;1.92;0.95;;;13.50;76.80;;;;;;5086361;28;20032;-69
2021/10/25 12:39:54;;;;;;;0.65;0.65;;;13.40;77.10;;;;;;5083825;28;20126;-69
2021/10/25 12:42:20;;;;;;;0.43;0.28;;;13.30;77.80;;;;;;5091406;28;20025;-69
2021/10/25 12:44:48;;;;;;;1.95;0.82;;;13.20;77.80;;;;;;5086548;28;20099;-69
2021/10/25 12:47:19;;;;;;;0.57;0.50;;;13.20;78.60;;;;;;5084070;28;20478;-70
2021/10/25 12:50:03;;;;;;;0.70;0.70;;;13.10;78.20;;;;;;5086616;28;20482;-69
2021/10/25 12:52:29;;;;;;;0.65;0.65;;;13.10;78.50;;;;;;5089571;28;20027;-70
2021/10/25 12:55:00;;;;;;;2.10;1.08;;;13.10;78.40;;;;;;5090731;28;20012;-70
2021/10/25 12:57:30;;;;;;;0.73;0.73;;;13.20;79.80;;;;;;5088809;28;20073;-69
2021/10/25 13:00:08;;;;;;;9.90;1.63;;;13.30;79.50;;;;;;5090130;28;20036;-71
2021/10/25 13:02:49;;;;;;;1.02;0.95;;;13.50;78.10;;;;;;5080015;28;20020;-69
2021/10/25 13:05:24;;;;;;;0.25;0.22;;;13.50;77.90;;;;;;5075254;28;20024;-69
2021/10/25 13:08:11;;;;;;;0.50;0.45;;;13.60;77.50;;;;;;5075718;28;20102;-69
2021/10/25 13:10:39;;;;;;;0.50;0.50;;;13.60;78.00;;;;;;5084049;28;20036;-69
2021/10/25 13:13:07;;;;;;;1.23;1.10;;;13.50;77.70;;;;;;5090949;28;20063;-69
2021/10/25 13:15:34;;;;;;;1.60;0.73;;;13.40;78.50;;;;;;5087996;28;20045;-70
2021/10/25 13:18:01;;;;;;;0.68;0.65;;;13.40;78.60;;;;;;5090615;28;20032;-69
2021/10/25 13:20:29;;;;;;;0.20;0.20;;;13.30;79.00;;;;;;5090279;28;20498;-69
2021/10/25 13:22:57;;;;;;;0.95;0.82;;;13.20;80.00;;;;;;5090830;28;20028;-69
2021/10/25 13:25:25;;;;;;;1.02;0.50;;;13.10;80.10;;;;;;5068015;28;20048;-70
2021/10/25 13:27:51;;;;;;;0.50;0.50;;;13.10;80.40;;;;;;5090444;28;20123;-70
2021/10/25 13:30:19;;;;;;;1.08;0.98;;;13.10;80.20;;;;;;5090280;28;20024;-69
2021/10/25 13:32:45;;;;;;;0.30;0.30;;;13.10;81.70;;;;;;5090276;28;20178;-69
2021/10/25 13:35:12;;;;;;;0.80;0.75;;;13.10;80.70;;;;;;5090829;28;20061;-70
2021/10/25 13:37:37;;;;;;;1.00;0.20;;;13.20;80.20;;;;;;5072036;28;20024;-69
2021/10/25 13:40:07;;;;;;;0.65;0.65;;;13.10;81.10;;;;;;5090056;28;20024;-70
2021/10/25 13:42:35;;;;;;;0.80;0.80;;;13.10;81.30;;;;;;5080121;28;20073;-70
2021/10/25 13:45:00;;;;;;;1.08;0.65;;;13.10;81.40;;;;;;5079514;28;20031;-69
2021/10/25 13:47:26;;;;;;;1.50;0.80;;;13.10;81.50;;;;;;5089957;28;20028;-70
2021/10/25 13:49:54;;;;;;;1.45;1.40;;;13.00;81.00;;;;;;5090020;28;20518;-70
2021/10/25 13:52:19;;;;;;;0.15;0.15;;;13.00;81.80;;;;;;5090329;28;20035;-69
2021/10/25 13:54:46;;;;;;;0.65;0.65;;;13.00;81.90;;;;;;5090045;28;20118;-71
2021/10/25 13:57:12;;;;;;;0.35;0.35;;;12.90;82.40;;;;;;5089925;28;20032;-69
2021/10/25 13:59:38;;;;;;;1.35;1.10;;;12.80;82.40;;;;;;5086551;28;20020;-70
2021/10/25 14:02:08;;;;;;;0.30;0.30;;;12.80;82.30;;;;;;5087580;28;20455;-70
2021/10/25 14:04:39;;;;;;;0.35;0.35;;;12.70;82.80;;;;;;5079740;28;20543;-74
2021/10/25 14:07:08;;;;;;;0.55;0.55;;;12.70;83.10;;;;;;5085808;28;20048;-70
2021/10/25 14:09:36;;;;;;;0.45;0.38;;;12.70;82.90;;;;;;5077474;28;20055;-69
2021/10/25 14:12:02;;;;;;;0.85;0.85;;;12.70;83.80;;;;;;5069938;28;20111;-69
2021/10/25 14:14:29;;;;;;;12.30;1.38;;;12.70;83.50;;;;;;5085392;28;20028;-69
2021/10/25 14:16:55;;;;;;;0.68;0.40;;;12.70;84.00;;;;;;5078287;28;20020;-68
2021/10/25 14:19:28;;;;;;;0.85;0.75;;;12.70;83.70;;;;;;5081658;28;20024;-67
2021/10/25 14:21:54;;;;;;;1.10;1.00;;;12.70;84.00;;;;;;5078849;28;20491;-69